sensor_id;sensor_type;location;lat;lon;timestamp;P1;durP1;ratioP1;P2;durP2;ratioP2
53666;SDS011;39568;51.026;5.468;2024-03-08T00:00:58;44.83;;;27.45;;
53666;SDS011;39568;51.026;5.468;2024-03-08T00:03:25;54.63;;;31.00;;
53666;SDS011;39568;51.026;5.468;2024-03-08T00:05:51;51.30;;;29.10;;
53666;SDS011;39568;51.026;5.468;2024-03-08T00:08:18;49.92;;;29.67;;
53666;SDS011;39568;51.026;5.468;2024-03-08T00:10:44;51.45;;;28.90;;
53666;SDS011;39568;51.026;5.468;2024-03-08T00:13:12;47.40;;;28.58;;
53666;SDS011;39568;51.026;5.468;2024-03-08T00:15:39;46.33;;;28.48;;
53666;SDS011;39568;51.026;5.468;2024-03-08T00:18:06;47.08;;;28.83;;
53666;SDS011;39568;51.026;5.468;2024-03-08T00:20:33;48.72;;;29.70;;
53666;SDS011;39568;51.026;5.468;2024-03-08T00:22:59;48.40;;;27.25;;
53666;SDS011;39568;51.026;5.468;2024-03-08T00:25:26;46.80;;;30.55;;
53666;SDS011;39568;51.026;5.468;2024-03-08T00:27:52;42.97;;;27.40;;
53666;SDS011;39568;51.026;5.468;2024-03-08T00:30:22;49.60;;;29.55;;
53666;SDS011;39568;51.026;5.468;2024-03-08T00:32:50;43.92;;;29.02;;
53666;SDS011;39568;51.026;5.468;2024-03-08T00:35:16;41.53;;;28.17;;
53666;SDS011;39568;51.026;5.468;2024-03-08T00:37:43;49.30;;;27.77;;
53666;SDS011;39568;51.026;5.468;2024-03-08T00:40:12;41.53;;;28.20;;
53666;SDS011;39568;51.026;5.468;2024-03-08T00:42:38;48.60;;;28.40;;
53666;SDS011;39568;51.026;5.468;2024-03-08T00:45:06;43.35;;;29.15;;
53666;SDS011;39568;51.026;5.468;2024-03-08T00:47:34;45.20;;;28.23;;
53666;SDS011;39568;51.026;5.468;2024-03-08T00:50:01;44.00;;;28.48;;
53666;SDS011;39568;51.026;5.468;2024-03-08T00:52:29;56.35;;;31.17;;
53666;SDS011;39568;51.026;5.468;2024-03-08T00:54:55;47.08;;;29.13;;
53666;SDS011;39568;51.026;5.468;2024-03-08T00:57:22;48.00;;;30.25;;
53666;SDS011;39568;51.026;5.468;2024-03-08T00:59:48;45.38;;;29.90;;
53666;SDS011;39568;51.026;5.468;2024-03-08T01:02:15;49.63;;;30.98;;
53666;SDS011;39568;51.026;5.468;2024-03-08T01:04:45;51.67;;;28.63;;
53666;SDS011;39568;51.026;5.468;2024-03-08T01:07:12;44.75;;;29.73;;
53666;SDS011;39568;51.026;5.468;2024-03-08T01:09:38;45.15;;;31.23;;
53666;SDS011;39568;51.026;5.468;2024-03-08T01:12:05;51.42;;;31.20;;
53666;SDS011;39568;51.026;5.468;2024-03-08T01:14:32;45.60;;;30.00;;
53666;SDS011;39568;51.026;5.468;2024-03-08T01:16:59;46.35;;;30.35;;
53666;SDS011;39568;51.026;5.468;2024-03-08T01:19:25;50.72;;;30.42;;
53666;SDS011;39568;51.026;5.468;2024-03-08T01:21:53;46.17;;;29.67;;
53666;SDS011;39568;51.026;5.468;2024-03-08T01:24:21;45.08;;;29.65;;
53666;SDS011;39568;51.026;5.468;2024-03-08T01:26:48;46.72;;;31.38;;
53666;SDS011;39568;51.026;5.468;2024-03-08T01:29:14;48.88;;;31.00;;
53666;SDS011;39568;51.026;5.468;2024-03-08T01:31:41;45.60;;;30.20;;
53666;SDS011;39568;51.026;5.468;2024-03-08T01:34:07;47.75;;;31.25;;
53666;SDS011;39568;51.026;5.468;2024-03-08T01:36:34;48.65;;;31.55;;
53666;SDS011;39568;51.026;5.468;2024-03-08T01:39:03;47.03;;;31.65;;
53666;SDS011;39568;51.026;5.468;2024-03-08T01:41:33;52.65;;;30.63;;
53666;SDS011;39568;51.026;5.468;2024-03-08T01:44:00;48.22;;;31.50;;
53666;SDS011;39568;51.026;5.468;2024-03-08T01:46:26;48.28;;;29.98;;
53666;SDS011;39568;51.026;5.468;2024-03-08T01:48:53;46.42;;;32.03;;
53666;SDS011;39568;51.026;5.468;2024-03-08T01:51:20;51.17;;;32.58;;
53666;SDS011;39568;51.026;5.468;2024-03-08T01:53:47;47.00;;;31.25;;
53666;SDS011;39568;51.026;5.468;2024-03-08T01:56:15;49.28;;;30.55;;
53666;SDS011;39568;51.026;5.468;2024-03-08T01:58:43;47.05;;;30.77;;
53666;SDS011;39568;51.026;5.468;2024-03-08T02:01:10;52.55;;;32.75;;
53666;SDS011;39568;51.026;5.468;2024-03-08T02:03:37;55.47;;;31.20;;
53666;SDS011;39568;51.026;5.468;2024-03-08T02:06:04;45.63;;;29.10;;
53666;SDS011;39568;51.026;5.468;2024-03-08T02:08:33;47.08;;;30.20;;
53666;SDS011;39568;51.026;5.468;2024-03-08T02:10:59;50.13;;;31.70;;
53666;SDS011;39568;51.026;5.468;2024-03-08T02:13:29;51.28;;;31.95;;
53666;SDS011;39568;51.026;5.468;2024-03-08T02:15:56;44.88;;;31.33;;
53666;SDS011;39568;51.026;5.468;2024-03-08T02:18:24;50.35;;;33.22;;
53666;SDS011;39568;51.026;5.468;2024-03-08T02:20:52;51.30;;;31.60;;
53666;SDS011;39568;51.026;5.468;2024-03-08T02:23:19;53.35;;;33.83;;
53666;SDS011;39568;51.026;5.468;2024-03-08T02:25:46;44.55;;;30.20;;
53666;SDS011;39568;51.026;5.468;2024-03-08T02:28:12;53.25;;;30.63;;
53666;SDS011;39568;51.026;5.468;2024-03-08T02:30:39;46.92;;;29.67;;
53666;SDS011;39568;51.026;5.468;2024-03-08T02:33:06;51.85;;;32.65;;
53666;SDS011;39568;51.026;5.468;2024-03-08T02:35:34;49.33;;;32.83;;
53666;SDS011;39568;51.026;5.468;2024-03-08T02:38:02;54.40;;;33.78;;
53666;SDS011;39568;51.026;5.468;2024-03-08T02:40:29;56.75;;;33.53;;
53666;SDS011;39568;51.026;5.468;2024-03-08T02:42:56;54.22;;;34.22;;
53666;SDS011;39568;51.026;5.468;2024-03-08T02:45:22;55.80;;;33.83;;
53666;SDS011;39568;51.026;5.468;2024-03-08T02:47:49;59.67;;;33.40;;
53666;SDS011;39568;51.026;5.468;2024-03-08T02:50:16;55.67;;;33.50;;
53666;SDS011;39568;51.026;5.468;2024-03-08T02:52:42;53.33;;;33.28;;
53666;SDS011;39568;51.026;5.468;2024-03-08T02:55:12;49.33;;;32.72;;
53666;SDS011;39568;51.026;5.468;2024-03-08T02:57:41;52.75;;;31.52;;
53666;SDS011;39568;51.026;5.468;2024-03-08T03:00:09;50.70;;;32.67;;
53666;SDS011;39568;51.026;5.468;2024-03-08T03:02:35;49.45;;;34.25;;
53666;SDS011;39568;51.026;5.468;2024-03-08T03:05:02;48.58;;;31.10;;
53666;SDS011;39568;51.026;5.468;2024-03-08T03:07:31;53.55;;;32.83;;
53666;SDS011;39568;51.026;5.468;2024-03-08T03:09:58;54.00;;;31.42;;
53666;SDS011;39568;51.026;5.468;2024-03-08T03:12:26;53.42;;;31.13;;
53666;SDS011;39568;51.026;5.468;2024-03-08T03:14:53;55.17;;;32.30;;
53666;SDS011;39568;51.026;5.468;2024-03-08T03:17:19;55.30;;;32.72;;
53666;SDS011;39568;51.026;5.468;2024-03-08T03:19:46;53.65;;;32.53;;
53666;SDS011;39568;51.026;5.468;2024-03-08T03:22:12;54.35;;;29.85;;
53666;SDS011;39568;51.026;5.468;2024-03-08T03:24:40;50.75;;;29.13;;
53666;SDS011;39568;51.026;5.468;2024-03-08T03:27:07;54.03;;;33.75;;
53666;SDS011;39568;51.026;5.468;2024-03-08T03:29:38;47.65;;;31.17;;
53666;SDS011;39568;51.026;5.468;2024-03-08T03:32:05;47.53;;;29.38;;
53666;SDS011;39568;51.026;5.468;2024-03-08T03:34:33;47.33;;;29.38;;
53666;SDS011;39568;51.026;5.468;2024-03-08T03:37:01;47.80;;;30.83;;
53666;SDS011;39568;51.026;5.468;2024-03-08T03:39:28;48.55;;;30.08;;
53666;SDS011;39568;51.026;5.468;2024-03-08T03:41:56;48.92;;;31.10;;
53666;SDS011;39568;51.026;5.468;2024-03-08T03:44:23;52.22;;;31.20;;
53666;SDS011;39568;51.026;5.468;2024-03-08T03:46:51;50.10;;;32.65;;
53666;SDS011;39568;51.026;5.468;2024-03-08T03:49:17;52.13;;;30.42;;
53666;SDS011;39568;51.026;5.468;2024-03-08T03:51:44;57.03;;;29.55;;
53666;SDS011;39568;51.026;5.468;2024-03-08T03:54:11;54.65;;;32.67;;
53666;SDS011;39568;51.026;5.468;2024-03-08T03:56:37;59.63;;;34.00;;
53666;SDS011;39568;51.026;5.468;2024-03-08T03:59:05;47.83;;;31.50;;
53666;SDS011;39568;51.026;5.468;2024-03-08T04:01:31;56.75;;;33.40;;
53666;SDS011;39568;51.026;5.468;2024-03-08T04:03:59;54.15;;;33.13;;
53666;SDS011;39568;51.026;5.468;2024-03-08T04:06:26;54.80;;;34.20;;
53666;SDS011;39568;51.026;5.468;2024-03-08T04:08:52;47.15;;;32.00;;
53666;SDS011;39568;51.026;5.468;2024-03-08T04:11:19;53.63;;;32.63;;
53666;SDS011;39568;51.026;5.468;2024-03-08T04:13:46;55.92;;;33.15;;
53666;SDS011;39568;51.026;5.468;2024-03-08T04:16:12;54.45;;;33.25;;
53666;SDS011;39568;51.026;5.468;2024-03-08T04:18:39;54.72;;;34.50;;
53666;SDS011;39568;51.026;5.468;2024-03-08T04:21:06;56.65;;;33.15;;
53666;SDS011;39568;51.026;5.468;2024-03-08T04:23:33;55.80;;;32.85;;
53666;SDS011;39568;51.026;5.468;2024-03-08T04:26:00;58.10;;;32.25;;
53666;SDS011;39568;51.026;5.468;2024-03-08T04:28:27;57.17;;;33.08;;
53666;SDS011;39568;51.026;5.468;2024-03-08T04:30:53;52.75;;;33.30;;
53666;SDS011;39568;51.026;5.468;2024-03-08T04:33:20;59.70;;;33.42;;
53666;SDS011;39568;51.026;5.468;2024-03-08T04:35:48;56.70;;;31.38;;
53666;SDS011;39568;51.026;5.468;2024-03-08T04:38:16;56.72;;;33.65;;
53666;SDS011;39568;51.026;5.468;2024-03-08T04:40:43;48.10;;;31.85;;
53666;SDS011;39568;51.026;5.468;2024-03-08T04:43:09;54.60;;;33.60;;
53666;SDS011;39568;51.026;5.468;2024-03-08T04:45:36;54.92;;;34.50;;
53666;SDS011;39568;51.026;5.468;2024-03-08T04:48:02;56.10;;;33.00;;
53666;SDS011;39568;51.026;5.468;2024-03-08T04:50:29;66.13;;;35.78;;
53666;SDS011;39568;51.026;5.468;2024-03-08T04:52:56;57.67;;;33.50;;
53666;SDS011;39568;51.026;5.468;2024-03-08T04:55:23;57.53;;;32.17;;
53666;SDS011;39568;51.026;5.468;2024-03-08T04:57:50;53.45;;;32.92;;
53666;SDS011;39568;51.026;5.468;2024-03-08T05:00:17;59.08;;;34.33;;
53666;SDS011;39568;51.026;5.468;2024-03-08T05:02:44;58.05;;;33.70;;
53666;SDS011;39568;51.026;5.468;2024-03-08T05:05:10;56.63;;;33.88;;
53666;SDS011;39568;51.026;5.468;2024-03-08T05:07:37;56.78;;;33.33;;
53666;SDS011;39568;51.026;5.468;2024-03-08T05:10:04;58.92;;;33.55;;
53666;SDS011;39568;51.026;5.468;2024-03-08T05:12:33;56.08;;;34.25;;
53666;SDS011;39568;51.026;5.468;2024-03-08T05:15:00;56.30;;;35.10;;
53666;SDS011;39568;51.026;5.468;2024-03-08T05:17:27;59.38;;;36.03;;
53666;SDS011;39568;51.026;5.468;2024-03-08T05:19:55;56.45;;;31.95;;
53666;SDS011;39568;51.026;5.468;2024-03-08T05:22:21;57.58;;;34.15;;
53666;SDS011;39568;51.026;5.468;2024-03-08T05:24:48;55.78;;;33.67;;
53666;SDS011;39568;51.026;5.468;2024-03-08T05:27:15;53.67;;;32.90;;
53666;SDS011;39568;51.026;5.468;2024-03-08T05:29:43;61.97;;;33.75;;
53666;SDS011;39568;51.026;5.468;2024-03-08T05:32:10;54.70;;;34.20;;
53666;SDS011;39568;51.026;5.468;2024-03-08T05:34:37;54.42;;;31.92;;
53666;SDS011;39568;51.026;5.468;2024-03-08T05:37:03;55.13;;;32.35;;
53666;SDS011;39568;51.026;5.468;2024-03-08T05:39:32;57.90;;;33.95;;
53666;SDS011;39568;51.026;5.468;2024-03-08T05:41:58;59.63;;;32.80;;
53666;SDS011;39568;51.026;5.468;2024-03-08T05:44:25;59.20;;;32.55;;
53666;SDS011;39568;51.026;5.468;2024-03-08T05:46:55;56.13;;;32.28;;
53666;SDS011;39568;51.026;5.468;2024-03-08T05:49:21;58.38;;;34.13;;
53666;SDS011;39568;51.026;5.468;2024-03-08T05:51:50;55.95;;;31.85;;
53666;SDS011;39568;51.026;5.468;2024-03-08T05:54:16;51.90;;;31.45;;
53666;SDS011;39568;51.026;5.468;2024-03-08T05:56:43;54.88;;;31.23;;
53666;SDS011;39568;51.026;5.468;2024-03-08T05:59:09;59.17;;;34.53;;
53666;SDS011;39568;51.026;5.468;2024-03-08T06:01:36;58.70;;;30.80;;
53666;SDS011;39568;51.026;5.468;2024-03-08T06:04:04;56.65;;;31.10;;
53666;SDS011;39568;51.026;5.468;2024-03-08T06:06:31;51.83;;;32.13;;
53666;SDS011;39568;51.026;5.468;2024-03-08T06:08:57;59.53;;;33.25;;
53666;SDS011;39568;51.026;5.468;2024-03-08T06:11:24;55.97;;;32.00;;
53666;SDS011;39568;51.026;5.468;2024-03-08T06:13:53;60.33;;;33.55;;
53666;SDS011;39568;51.026;5.468;2024-03-08T06:16:25;53.30;;;32.60;;
53666;SDS011;39568;51.026;5.468;2024-03-08T06:19:00;51.45;;;31.00;;
53666;SDS011;39568;51.026;5.468;2024-03-08T06:21:28;55.03;;;32.25;;
53666;SDS011;39568;51.026;5.468;2024-03-08T06:23:55;53.20;;;33.00;;
53666;SDS011;39568;51.026;5.468;2024-03-08T06:26:22;52.40;;;32.53;;
53666;SDS011;39568;51.026;5.468;2024-03-08T06:28:49;60.80;;;33.28;;
53666;SDS011;39568;51.026;5.468;2024-03-08T06:31:16;51.72;;;31.33;;
53666;SDS011;39568;51.026;5.468;2024-03-08T06:33:42;52.83;;;31.90;;
53666;SDS011;39568;51.026;5.468;2024-03-08T06:36:09;59.65;;;31.63;;
53666;SDS011;39568;51.026;5.468;2024-03-08T06:38:38;59.78;;;33.42;;
53666;SDS011;39568;51.026;5.468;2024-03-08T06:41:07;48.88;;;30.20;;
53666;SDS011;39568;51.026;5.468;2024-03-08T06:43:34;51.00;;;30.90;;
53666;SDS011;39568;51.026;5.468;2024-03-08T06:46:01;57.80;;;33.50;;
53666;SDS011;39568;51.026;5.468;2024-03-08T06:48:29;57.28;;;31.55;;
53666;SDS011;39568;51.026;5.468;2024-03-08T06:50:55;50.17;;;31.40;;
53666;SDS011;39568;51.026;5.468;2024-03-08T06:53:22;57.40;;;30.08;;
53666;SDS011;39568;51.026;5.468;2024-03-08T06:55:51;52.13;;;29.77;;
53666;SDS011;39568;51.026;5.468;2024-03-08T06:58:18;49.90;;;32.38;;
53666;SDS011;39568;51.026;5.468;2024-03-08T07:00:44;50.28;;;30.65;;
53666;SDS011;39568;51.026;5.468;2024-03-08T07:03:11;52.22;;;29.35;;
53666;SDS011;39568;51.026;5.468;2024-03-08T07:05:42;50.85;;;29.42;;
53666;SDS011;39568;51.026;5.468;2024-03-08T07:08:08;50.65;;;30.80;;
53666;SDS011;39568;51.026;5.468;2024-03-08T07:10:35;57.22;;;31.67;;
53666;SDS011;39568;51.026;5.468;2024-03-08T07:13:03;52.88;;;30.05;;
53666;SDS011;39568;51.026;5.468;2024-03-08T07:15:30;47.85;;;28.75;;
53666;SDS011;39568;51.026;5.468;2024-03-08T07:17:57;51.30;;;28.85;;
53666;SDS011;39568;51.026;5.468;2024-03-08T07:20:25;46.17;;;27.88;;
53666;SDS011;39568;51.026;5.468;2024-03-08T07:22:51;50.53;;;28.80;;
53666;SDS011;39568;51.026;5.468;2024-03-08T07:25:19;48.17;;;31.20;;
53666;SDS011;39568;51.026;5.468;2024-03-08T07:27:49;49.28;;;28.15;;
53666;SDS011;39568;51.026;5.468;2024-03-08T07:30:18;51.03;;;30.05;;
53666;SDS011;39568;51.026;5.468;2024-03-08T07:32:58;41.97;;;25.67;;
53666;SDS011;39568;51.026;5.468;2024-03-08T07:35:25;48.58;;;28.33;;
53666;SDS011;39568;51.026;5.468;2024-03-08T07:37:52;50.47;;;29.50;;
53666;SDS011;39568;51.026;5.468;2024-03-08T07:40:20;47.00;;;28.92;;
53666;SDS011;39568;51.026;5.468;2024-03-08T07:42:46;49.67;;;28.40;;
53666;SDS011;39568;51.026;5.468;2024-03-08T07:45:13;50.63;;;29.33;;
53666;SDS011;39568;51.026;5.468;2024-03-08T07:47:42;43.95;;;26.30;;
53666;SDS011;39568;51.026;5.468;2024-03-08T07:50:09;46.70;;;27.40;;
53666;SDS011;39568;51.026;5.468;2024-03-08T07:52:35;46.60;;;27.35;;
53666;SDS011;39568;51.026;5.468;2024-03-08T07:55:02;47.50;;;25.98;;
53666;SDS011;39568;51.026;5.468;2024-03-08T07:57:30;44.10;;;26.20;;
53666;SDS011;39568;51.026;5.468;2024-03-08T07:59:57;43.85;;;25.83;;
53666;SDS011;39568;51.026;5.468;2024-03-08T08:02:23;45.88;;;26.08;;
53666;SDS011;39568;51.026;5.468;2024-03-08T08:04:51;45.58;;;25.42;;
53666;SDS011;39568;51.026;5.468;2024-03-08T08:07:19;45.78;;;26.65;;
53666;SDS011;39568;51.026;5.468;2024-03-08T08:09:45;44.22;;;26.48;;
53666;SDS011;39568;51.026;5.468;2024-03-08T08:12:12;41.13;;;24.92;;
53666;SDS011;39568;51.026;5.468;2024-03-08T08:14:38;46.47;;;25.13;;
53666;SDS011;39568;51.026;5.468;2024-03-08T08:17:06;38.00;;;22.92;;
53666;SDS011;39568;51.026;5.468;2024-03-08T08:19:33;40.65;;;23.70;;
53666;SDS011;39568;51.026;5.468;2024-03-08T08:22:01;40.70;;;23.45;;
53666;SDS011;39568;51.026;5.468;2024-03-08T08:24:28;38.10;;;23.65;;
53666;SDS011;39568;51.026;5.468;2024-03-08T08:26:54;35.58;;;20.65;;
53666;SDS011;39568;51.026;5.468;2024-03-08T08:29:21;41.10;;;21.85;;
53666;SDS011;39568;51.026;5.468;2024-03-08T08:31:48;33.53;;;21.30;;
53666;SDS011;39568;51.026;5.468;2024-03-08T08:34:16;36.38;;;21.98;;
53666;SDS011;39568;51.026;5.468;2024-03-08T08:36:44;45.33;;;21.52;;
53666;SDS011;39568;51.026;5.468;2024-03-08T08:39:12;36.38;;;21.45;;
53666;SDS011;39568;51.026;5.468;2024-03-08T08:41:38;36.58;;;20.83;;
53666;SDS011;39568;51.026;5.468;2024-03-08T08:44:06;30.15;;;17.92;;
53666;SDS011;39568;51.026;5.468;2024-03-08T08:46:35;37.35;;;18.30;;
53666;SDS011;39568;51.026;5.468;2024-03-08T08:49:02;33.90;;;19.38;;
53666;SDS011;39568;51.026;5.468;2024-03-08T08:51:29;31.45;;;18.20;;
53666;SDS011;39568;51.026;5.468;2024-03-08T08:53:56;41.85;;;19.27;;
53666;SDS011;39568;51.026;5.468;2024-03-08T08:56:24;39.95;;;19.10;;
53666;SDS011;39568;51.026;5.468;2024-03-08T08:58:51;28.20;;;17.83;;
53666;SDS011;39568;51.026;5.468;2024-03-08T09:01:18;26.42;;;18.00;;
53666;SDS011;39568;51.026;5.468;2024-03-08T09:03:45;32.00;;;19.33;;
53666;SDS011;39568;51.026;5.468;2024-03-08T09:06:12;33.22;;;16.50;;
53666;SDS011;39568;51.026;5.468;2024-03-08T09:08:38;27.55;;;17.73;;
53666;SDS011;39568;51.026;5.468;2024-03-08T09:11:05;27.83;;;17.63;;
53666;SDS011;39568;51.026;5.468;2024-03-08T09:13:33;27.92;;;16.20;;
53666;SDS011;39568;51.026;5.468;2024-03-08T09:15:59;28.02;;;16.70;;
53666;SDS011;39568;51.026;5.468;2024-03-08T09:18:26;32.00;;;17.40;;
53666;SDS011;39568;51.026;5.468;2024-03-08T09:20:52;33.58;;;16.13;;
53666;SDS011;39568;51.026;5.468;2024-03-08T09:23:20;25.58;;;15.65;;
53666;SDS011;39568;51.026;5.468;2024-03-08T09:25:46;26.00;;;15.48;;
53666;SDS011;39568;51.026;5.468;2024-03-08T09:28:13;25.27;;;15.73;;
53666;SDS011;39568;51.026;5.468;2024-03-08T09:30:40;25.63;;;16.33;;
53666;SDS011;39568;51.026;5.468;2024-03-08T09:33:08;23.73;;;14.90;;
53666;SDS011;39568;51.026;5.468;2024-03-08T09:35:34;23.30;;;14.82;;
53666;SDS011;39568;51.026;5.468;2024-03-08T09:38:01;20.52;;;13.50;;
53666;SDS011;39568;51.026;5.468;2024-03-08T09:40:29;25.17;;;14.75;;
53666;SDS011;39568;51.026;5.468;2024-03-08T09:42:56;20.88;;;12.75;;
53666;SDS011;39568;51.026;5.468;2024-03-08T09:45:22;22.08;;;13.00;;
53666;SDS011;39568;51.026;5.468;2024-03-08T09:47:51;28.13;;;14.02;;
53666;SDS011;39568;51.026;5.468;2024-03-08T09:50:18;27.52;;;13.63;;
53666;SDS011;39568;51.026;5.468;2024-03-08T09:52:46;21.35;;;13.63;;
53666;SDS011;39568;51.026;5.468;2024-03-08T09:55:13;22.60;;;13.65;;
53666;SDS011;39568;51.026;5.468;2024-03-08T09:57:42;22.67;;;13.65;;
53666;SDS011;39568;51.026;5.468;2024-03-08T10:00:30;22.67;;;14.85;;
53666;SDS011;39568;51.026;5.468;2024-03-08T10:03:01;28.50;;;14.80;;
53666;SDS011;39568;51.026;5.468;2024-03-08T10:05:28;22.55;;;14.75;;
53666;SDS011;39568;51.026;5.468;2024-03-08T10:07:54;27.80;;;13.60;;
53666;SDS011;39568;51.026;5.468;2024-03-08T10:10:21;24.70;;;14.68;;
53666;SDS011;39568;51.026;5.468;2024-03-08T10:12:48;19.23;;;12.98;;
53666;SDS011;39568;51.026;5.468;2024-03-08T10:15:15;22.83;;;13.40;;
53666;SDS011;39568;51.026;5.468;2024-03-08T10:17:42;23.83;;;13.80;;
53666;SDS011;39568;51.026;5.468;2024-03-08T10:20:14;20.05;;;13.15;;
53666;SDS011;39568;51.026;5.468;2024-03-08T10:22:41;22.95;;;13.65;;
53666;SDS011;39568;51.026;5.468;2024-03-08T10:25:09;24.90;;;13.85;;
53666;SDS011;39568;51.026;5.468;2024-03-08T10:27:36;20.85;;;12.75;;
53666;SDS011;39568;51.026;5.468;2024-03-08T10:30:04;24.27;;;13.98;;
53666;SDS011;39568;51.026;5.468;2024-03-08T10:32:33;20.77;;;13.40;;
53666;SDS011;39568;51.026;5.468;2024-03-08T10:35:00;19.77;;;13.55;;
53666;SDS011;39568;51.026;5.468;2024-03-08T10:37:28;23.85;;;13.05;;
53666;SDS011;39568;51.026;5.468;2024-03-08T10:39:57;19.98;;;13.90;;
53666;SDS011;39568;51.026;5.468;2024-03-08T10:42:28;21.38;;;13.38;;
53666;SDS011;39568;51.026;5.468;2024-03-08T10:44:57;19.65;;;11.90;;
53666;SDS011;39568;51.026;5.468;2024-03-08T10:47:29;22.40;;;13.27;;
53666;SDS011;39568;51.026;5.468;2024-03-08T10:49:59;20.75;;;13.35;;
53666;SDS011;39568;51.026;5.468;2024-03-08T10:52:30;17.73;;;12.73;;
53666;SDS011;39568;51.026;5.468;2024-03-08T10:54:57;23.65;;;14.20;;
53666;SDS011;39568;51.026;5.468;2024-03-08T10:57:24;22.35;;;14.80;;
53666;SDS011;39568;51.026;5.468;2024-03-08T10:59:52;21.05;;;14.48;;
53666;SDS011;39568;51.026;5.468;2024-03-08T11:02:19;23.90;;;14.00;;
53666;SDS011;39568;51.026;5.468;2024-03-08T11:04:46;21.30;;;13.00;;
53666;SDS011;39568;51.026;5.468;2024-03-08T11:07:14;21.13;;;13.50;;
53666;SDS011;39568;51.026;5.468;2024-03-08T11:09:44;18.02;;;12.27;;
53666;SDS011;39568;51.026;5.468;2024-03-08T11:12:23;22.50;;;13.48;;
53666;SDS011;39568;51.026;5.468;2024-03-08T11:14:55;22.52;;;14.05;;
53666;SDS011;39568;51.026;5.468;2024-03-08T11:17:26;18.67;;;13.50;;
53666;SDS011;39568;51.026;5.468;2024-03-08T11:19:53;20.77;;;14.23;;
53666;SDS011;39568;51.026;5.468;2024-03-08T11:22:21;23.48;;;14.40;;
53666;SDS011;39568;51.026;5.468;2024-03-08T11:24:51;24.17;;;12.38;;
53666;SDS011;39568;51.026;5.468;2024-03-08T11:27:17;22.08;;;15.30;;
53666;SDS011;39568;51.026;5.468;2024-03-08T11:29:45;20.10;;;13.43;;
53666;SDS011;39568;51.026;5.468;2024-03-08T11:32:27;17.52;;;12.98;;
53666;SDS011;39568;51.026;5.468;2024-03-08T11:34:54;21.40;;;11.95;;
53666;SDS011;39568;51.026;5.468;2024-03-08T11:37:21;17.85;;;13.52;;
53666;SDS011;39568;51.026;5.468;2024-03-08T11:39:47;17.45;;;13.43;;
53666;SDS011;39568;51.026;5.468;2024-03-08T11:42:16;18.02;;;12.98;;
53666;SDS011;39568;51.026;5.468;2024-03-08T11:44:43;19.27;;;13.07;;
53666;SDS011;39568;51.026;5.468;2024-03-08T11:47:09;15.63;;;11.90;;
53666;SDS011;39568;51.026;5.468;2024-03-08T11:49:36;20.40;;;12.13;;
53666;SDS011;39568;51.026;5.468;2024-03-08T11:52:03;29.50;;;13.65;;
53666;SDS011;39568;51.026;5.468;2024-03-08T11:54:30;23.02;;;12.23;;
53666;SDS011;39568;51.026;5.468;2024-03-08T11:56:56;24.65;;;12.85;;
53666;SDS011;39568;51.026;5.468;2024-03-08T11:59:27;17.58;;;11.95;;
53666;SDS011;39568;51.026;5.468;2024-03-08T12:02:01;22.35;;;12.90;;
53666;SDS011;39568;51.026;5.468;2024-03-08T12:04:28;20.95;;;12.60;;
53666;SDS011;39568;51.026;5.468;2024-03-08T12:06:56;21.48;;;13.27;;
53666;SDS011;39568;51.026;5.468;2024-03-08T12:09:25;17.10;;;12.20;;
53666;SDS011;39568;51.026;5.468;2024-03-08T12:11:51;16.63;;;11.07;;
53666;SDS011;39568;51.026;5.468;2024-03-08T12:14:18;29.05;;;13.45;;
53666;SDS011;39568;51.026;5.468;2024-03-08T12:16:47;21.50;;;11.90;;
53666;SDS011;39568;51.026;5.468;2024-03-08T12:19:14;29.48;;;12.77;;
53666;SDS011;39568;51.026;5.468;2024-03-08T12:21:41;21.40;;;12.45;;
53666;SDS011;39568;51.026;5.468;2024-03-08T12:24:14;18.75;;;12.05;;
53666;SDS011;39568;51.026;5.468;2024-03-08T12:26:41;17.85;;;11.43;;
53666;SDS011;39568;51.026;5.468;2024-03-08T12:29:15;17.85;;;13.00;;
53666;SDS011;39568;51.026;5.468;2024-03-08T12:31:41;16.13;;;12.50;;
53666;SDS011;39568;51.026;5.468;2024-03-08T12:34:09;20.05;;;12.25;;
53666;SDS011;39568;51.026;5.468;2024-03-08T12:36:36;16.58;;;12.48;;
53666;SDS011;39568;51.026;5.468;2024-03-08T12:39:03;19.73;;;12.55;;
53666;SDS011;39568;51.026;5.468;2024-03-08T12:41:29;18.10;;;12.50;;
53666;SDS011;39568;51.026;5.468;2024-03-08T12:43:57;19.65;;;12.65;;
53666;SDS011;39568;51.026;5.468;2024-03-08T12:46:24;15.13;;;11.63;;
53666;SDS011;39568;51.026;5.468;2024-03-08T12:48:51;17.48;;;12.40;;
53666;SDS011;39568;51.026;5.468;2024-03-08T12:51:20;19.38;;;12.18;;
53666;SDS011;39568;51.026;5.468;2024-03-08T12:53:47;22.52;;;12.73;;
53666;SDS011;39568;51.026;5.468;2024-03-08T12:56:28;15.73;;;12.48;;
53666;SDS011;39568;51.026;5.468;2024-03-08T12:58:55;15.10;;;11.20;;
53666;SDS011;39568;51.026;5.468;2024-03-08T13:01:22;18.27;;;12.27;;
53666;SDS011;39568;51.026;5.468;2024-03-08T13:03:48;22.90;;;11.63;;
53666;SDS011;39568;51.026;5.468;2024-03-08T13:06:15;17.95;;;12.10;;
53666;SDS011;39568;51.026;5.468;2024-03-08T13:08:43;19.40;;;13.23;;
53666;SDS011;39568;51.026;5.468;2024-03-08T13:11:10;13.52;;;11.68;;
53666;SDS011;39568;51.026;5.468;2024-03-08T13:13:37;15.35;;;12.70;;
53666;SDS011;39568;51.026;5.468;2024-03-08T13:16:05;19.98;;;12.23;;
53666;SDS011;39568;51.026;5.468;2024-03-08T13:18:33;15.57;;;11.27;;
53666;SDS011;39568;51.026;5.468;2024-03-08T13:21:00;14.63;;;11.77;;
53666;SDS011;39568;51.026;5.468;2024-03-08T13:23:30;19.23;;;11.70;;
53666;SDS011;39568;51.026;5.468;2024-03-08T13:25:57;14.68;;;12.02;;
53666;SDS011;39568;51.026;5.468;2024-03-08T13:28:24;20.42;;;12.45;;
53666;SDS011;39568;51.026;5.468;2024-03-08T13:30:55;17.95;;;12.13;;
53666;SDS011;39568;51.026;5.468;2024-03-08T13:33:23;14.85;;;12.05;;
53666;SDS011;39568;51.026;5.468;2024-03-08T13:35:49;23.17;;;11.98;;
53666;SDS011;39568;51.026;5.468;2024-03-08T13:38:16;19.13;;;12.50;;
53666;SDS011;39568;51.026;5.468;2024-03-08T13:40:45;16.25;;;11.88;;
53666;SDS011;39568;51.026;5.468;2024-03-08T13:43:13;15.57;;;12.68;;
53666;SDS011;39568;51.026;5.468;2024-03-08T13:45:39;23.85;;;12.70;;
53666;SDS011;39568;51.026;5.468;2024-03-08T13:48:06;19.83;;;11.57;;
53666;SDS011;39568;51.026;5.468;2024-03-08T13:50:37;16.10;;;12.02;;
53666;SDS011;39568;51.026;5.468;2024-03-08T13:53:04;14.73;;;11.73;;
53666;SDS011;39568;51.026;5.468;2024-03-08T13:55:31;15.95;;;10.77;;
53666;SDS011;39568;51.026;5.468;2024-03-08T13:57:58;15.38;;;12.32;;
53666;SDS011;39568;51.026;5.468;2024-03-08T14:00:26;17.20;;;12.80;;
53666;SDS011;39568;51.026;5.468;2024-03-08T14:02:58;16.70;;;11.60;;
53666;SDS011;39568;51.026;5.468;2024-03-08T14:05:25;18.58;;;10.43;;
53666;SDS011;39568;51.026;5.468;2024-03-08T14:07:52;14.23;;;11.23;;
53666;SDS011;39568;51.026;5.468;2024-03-08T14:10:19;13.52;;;11.27;;
53666;SDS011;39568;51.026;5.468;2024-03-08T14:12:47;18.20;;;11.80;;
53666;SDS011;39568;51.026;5.468;2024-03-08T14:15:15;16.08;;;12.02;;
53666;SDS011;39568;51.026;5.468;2024-03-08T14:17:44;15.48;;;11.32;;
53666;SDS011;39568;51.026;5.468;2024-03-08T14:20:11;17.60;;;11.25;;
53666;SDS011;39568;51.026;5.468;2024-03-08T14:22:39;14.35;;;11.25;;